createdAt,value
2022-11-03T00:00:12.799Z,130.00
2022-11-03T00:02:45.438Z,139.00
2022-11-03T00:05:35.907Z,136.60
2022-11-03T00:08:08.537Z,132.60
2022-11-03T00:10:43.127Z,133.20
2022-11-03T00:13:15.767Z,139.80
2022-11-03T00:15:52.700Z,147.40
2022-11-03T00:18:25.967Z,143.00
2022-11-03T00:21:02.172Z,144.60
2022-11-03T00:23:36.436Z,139.20
2022-11-03T00:26:13.023Z,143.60
2022-11-03T00:28:46.588Z,140.60
2022-11-03T00:31:21.789Z,142.40
2022-11-03T00:33:54.907Z,145.80
2022-11-03T00:36:29.373Z,137.00
2022-11-03T00:39:02.323Z,128.60
2022-11-03T00:41:36.633Z,131.80
2022-11-03T00:44:11.882Z,141.60
2022-11-03T00:46:44.851Z,133.00
2022-11-03T00:49:17.361Z,138.60
2022-11-03T00:51:49.548Z,133.40
2022-11-03T00:54:22.093Z,148.20
2022-11-03T00:56:56.626Z,155.60
2022-11-03T00:59:28.655Z,148.80
2022-11-03T01:02:01.885Z,130.80
2022-11-03T01:04:50.622Z,139.60
2022-11-03T01:07:24.673Z,140.00
2022-11-03T01:09:56.928Z,134.80
2022-11-03T01:12:32.026Z,150.00
2022-11-03T01:15:05.047Z,130.60
2022-11-03T01:17:37.682Z,145.60
2022-11-03T01:20:10.509Z,138.80
2022-11-03T01:22:42.617Z,143.40
2022-11-03T01:25:14.595Z,151.20
2022-11-03T02:25:55.091Z,178.50
2022-11-03T02:28:29.457Z,192.33
2022-11-03T02:31:13.498Z,178.00
2022-11-03T02:33:56.892Z,173.50
2022-11-03T02:36:34.755Z,179.50
2022-11-03T02:39:12.178Z,203.00
2022-11-03T02:41:49.610Z,201.50
2022-11-03T02:44:23.938Z,202.33
2022-11-03T02:47:00.835Z,186.25
2022-11-03T02:49:33.711Z,211.67
2022-11-03T02:52:07.960Z,207.67
2022-11-03T02:54:45.437Z,228.75
2022-11-03T02:57:24.781Z,217.00
2022-11-03T03:00:03.839Z,247.75
2022-11-03T03:02:42.309Z,240.50
2022-11-03T03:05:17.723Z,246.50
2022-11-03T03:07:55.782Z,250.00
2022-11-03T03:10:33.550Z,252.50
2022-11-03T03:13:12.360Z,246.25
2022-11-03T03:15:50.474Z,252.75
2022-11-03T03:18:30.234Z,263.00
2022-11-03T03:21:09.501Z,258.75
2022-11-03T03:23:51.267Z,273.00
2022-11-03T03:26:30.007Z,266.25
2022-11-03T03:29:11.043Z,267.25
2022-11-03T03:31:47.183Z,264.00
2022-11-03T03:34:34.800Z,275.50
2022-11-03T03:37:10.078Z,277.25
2022-11-03T03:39:47.022Z,286.75
2022-11-03T03:42:20.813Z,261.50
2022-11-03T03:44:56.384Z,297.00
2022-11-03T03:47:32.700Z,288.50
2022-11-03T03:50:05.627Z,270.25
2022-11-03T03:52:38.760Z,290.50
2022-11-03T03:55:17.609Z,295.00
2022-11-03T03:57:50.159Z,292.75
2022-11-03T04:00:24.265Z,284.00
2022-11-03T04:02:57.323Z,308.75
2022-11-03T04:05:30.314Z,281.00
2022-11-03T04:08:02.430Z,281.00
2022-11-03T04:10:35.280Z,296.00
2022-11-03T04:13:24.287Z,279.25
2022-11-03T04:16:15.690Z,283.25
2022-11-03T04:19:04.411Z,298.00
2022-11-03T04:21:53.570Z,283.00
2022-11-03T04:24:26.209Z,297.00
2022-11-03T04:26:59.370Z,290.50
2022-11-03T04:29:31.762Z,303.25
2022-11-03T04:32:21.175Z,301.50
2022-11-03T04:34:54.038Z,285.50
2022-11-03T04:37:26.184Z,303.00
2022-11-03T04:40:03.514Z,314.50
2022-11-03T04:42:38.559Z,311.75
2022-11-03T04:45:23.712Z,326.50
2022-11-03T04:47:58.312Z,321.50
2022-11-03T04:50:30.935Z,297.50
2022-11-03T04:53:03.800Z,294.25
2022-11-03T04:55:36.242Z,327.75
2022-11-03T04:58:21.394Z,307.50
2022-11-03T05:00:54.971Z,337.00
2022-11-03T05:03:32.986Z,335.25
2022-11-03T05:06:14.020Z,354.75
2022-11-03T05:08:50.114Z,355.00
2022-11-03T05:11:34.435Z,344.00
2022-11-03T05:14:16.930Z,370.00
2022-11-03T05:16:50.207Z,375.33
2022-11-03T05:19:26.648Z,389.67
2022-11-03T05:22:01.168Z,390.00
2022-11-03T05:24:35.067Z,386.33
2022-11-03T05:27:07.634Z,391.33
2022-11-03T05:29:42.118Z,411.00
2022-11-03T05:32:18.249Z,401.75
2022-11-03T05:34:54.612Z,394.33
2022-11-03T05:37:31.765Z,401.33
2022-11-03T05:40:23.370Z,402.00
2022-11-03T05:42:58.368Z,434.00
2022-11-03T05:45:36.147Z,427.50
2022-11-03T05:48:17.494Z,451.50
2022-11-03T05:50:52.864Z,450.25
2022-11-03T05:53:34.870Z,453.00
2022-11-03T05:56:10.475Z,448.75
2022-11-03T05:58:45.999Z,418.33
2022-11-03T06:01:27.627Z,462.75
2022-11-03T06:04:02.340Z,435.00
2022-11-03T06:06:38.856Z,465.80
2022-11-03T06:09:18.277Z,482.40
2022-11-03T06:11:51.598Z,494.60
2022-11-03T06:14:25.592Z,462.00
2022-11-03T06:17:01.404Z,460.00
2022-11-03T06:19:41.269Z,488.25
2022-11-03T06:22:22.313Z,465.50
2022-11-03T06:24:56.516Z,481.80
2022-11-03T06:27:31.761Z,445.60
2022-11-03T06:30:08.429Z,442.20
2022-11-03T06:32:40.881Z,449.80
2022-11-03T06:35:23.035Z,460.20
2022-11-03T06:37:59.755Z,477.00
2022-11-03T06:40:39.119Z,457.60
2022-11-03T06:43:24.368Z,468.80
2022-11-03T06:45:59.503Z,470.80
2022-11-03T06:48:33.741Z,460.20
2022-11-03T06:51:07.328Z,478.60
2022-11-03T06:53:41.811Z,479.00
2022-11-03T06:56:19.235Z,471.40
2022-11-03T06:58:53.520Z,465.60
2022-11-03T07:01:29.027Z,489.60
2022-11-03T07:04:04.591Z,479.40
2022-11-03T07:06:40.328Z,480.00
2022-11-03T07:09:18.630Z,471.80
2022-11-03T07:11:54.723Z,469.75
2022-11-03T07:14:31.174Z,461.20
2022-11-03T07:17:06.652Z,437.50
2022-11-03T07:19:41.725Z,465.00
2022-11-03T07:22:20.174Z,469.25
2022-11-03T07:24:57.958Z,476.00
2022-11-03T07:27:32.891Z,454.40
2022-11-03T07:30:20.222Z,469.80
2022-11-03T07:32:57.651Z,454.60
2022-11-03T07:36:08.573Z,440.00
2022-11-03T07:38:31.587Z,450.20
2022-11-03T07:41:06.614Z,406.50
2022-11-03T07:43:39.910Z,318.50
2022-11-03T07:46:23.591Z,311.25
2022-11-03T07:48:59.216Z,310.75
2022-11-03T07:51:34.615Z,367.33
2022-11-03T07:54:14.510Z,406.67
2022-11-03T07:56:56.724Z,375.75
2022-11-03T07:59:35.506Z,403.50
2022-11-03T08:02:34.937Z,386.75
2022-11-03T08:05:09.882Z,394.75
2022-11-03T08:07:42.406Z,404.00
2022-11-03T08:10:15.257Z,416.00
2022-11-03T08:12:49.937Z,384.00
2022-11-03T08:15:22.499Z,380.67
2022-11-03T08:17:56.302Z,393.33
2022-11-03T08:20:28.542Z,381.00
2022-11-03T08:25:53.503Z,381.25
2022-11-03T08:28:28.491Z,354.67
2022-11-03T08:31:11.158Z,350.00
2022-11-03T08:33:45.361Z,312.25
2022-11-03T08:36:21.540Z,261.50
2022-11-03T08:38:54.280Z,218.00
2022-11-03T08:41:26.454Z,202.00
2022-11-03T08:44:01.077Z,191.00
2022-11-03T08:46:33.225Z,160.40
2022-11-03T08:49:09.758Z,162.60
2022-11-03T08:51:44.427Z,159.20
2022-11-03T08:54:17.380Z,164.00
2022-11-03T08:56:50.437Z,156.80
2022-11-03T08:59:25.103Z,146.20
2022-11-03T09:01:59.050Z,147.20
2022-11-03T09:04:36.710Z,135.80
2022-11-03T09:07:09.725Z,144.00
2022-11-03T09:12:35.666Z,132.00
